• Join FlightAware (Why Join?)
  • Login
  • US Flag 
07:31PM EDT


 

Airport Tracker/Info


-or-


 

Live Flight TrackerFlight Track Log ✈ AWE1693 ✈ 22-Jun-2013 ✈ KCLT - KTPA

Flight Track Log - Related Links

Times and Time Zones

All times are in EDT time to prevent confusion due to time zone crossing. See the AWE1693 flight status page for this flight to view local times or setup timezone preferences in your user account.

Time Position Orientation Groundspeed Altitude Reporting Facility
EDT Latitude Longitude Course Direction KTS MPH feet Rate Location/Type
11:52AM 35.2353 -80.9594 192° South 161 185 1,900  Level Atlanta Center
11:53AM 35.2544 -80.9714 333° Northwest 164 189 2,600 1,740 Climbing Atlanta Center
11:53AM 35.2931 -81.0158 317° Northwest 227 261 4,400 2,340 Climbing Atlanta Center
11:55AM 34.8655 -81.0167 180° South  Level FlightAware Approximate
11:55AM 35.2847 -81.1078 264° West 284 327 7,200  Level Atlanta Center
11:55AM 35.2794 -81.1461 260° West 283 326 7,900 660 Climbing Atlanta Center
11:56AM 34.7420 -81.0407 190° South  Level FlightAware Approximate
11:56AM 35.2417 -81.2261 240° Southwest 299 344 8,300  Level Atlanta Center
11:57AM 34.6326 -81.0835 192° South  Level FlightAware Approximate
11:57AM 35.1936 -81.2253 179° South 293 337 10,100  Level Atlanta Center
11:58AM 35.0842 -81.1883 165° South 302 348 13,500 2,340 Climbing Atlanta Center
11:59AM 35.0014 -81.1253 148° Southeast 334 384 16,000 2,520 Climbing Atlanta Center
12:01PM 34.8658 -81.0381 152° Southeast 332 382 20,300 2,160 Climbing Jacksonville Center
12:02PM 34.7639 -81.0503 186° South 311 358 21,800 1,260 Climbing Jacksonville Center
12:03PM 34.6619 -81.0803 194° South 347 399 22,900 1,080 Climbing Jacksonville Center
12:04PM 34.5561 -81.1078 192° South 382 440 24,000 1,440 Climbing Jacksonville Center
12:05PM 34.4458 -81.1325 190° South 396 456 25,800 1,500 Climbing Jacksonville Center
12:06PM 34.3356 -81.1575 191° South 409 471 27,000 1,080 Climbing Jacksonville Center
12:07PM 34.2358 -81.1769 189° South 409 471 28,000 1,140 Climbing Jacksonville Center
12:08PM 34.1214 -81.2019 190° South 414 476 29,300 1,260 Climbing Jacksonville Center
12:09PM 34.0028 -81.2292 191° South 428 493 30,600 1,260 Climbing Jacksonville Center
12:10PM 33.8864 -81.2564 191° South 428 493 31,900 1,380 Climbing Jacksonville Center
12:11PM 33.7697 -81.2836 191° South 428 493 33,400 1,440 Climbing Jacksonville Center
12:12PM 33.6428 -81.3133 191° South 428 493 34,800 1,200 Climbing Jacksonville Center
12:13PM 33.5283 -81.3428 192° South 428 493 35,800 600 Climbing Jacksonville Center
12:14PM 33.4244 -81.3619 189° South 428 493 36,000 60 Climbing Jacksonville Center
12:15PM 33.3078 -81.3889 191° South 428 493 36,000  Level Jacksonville Center
12:16PM 33.1911 -81.4156 191° South 428 493 36,000  Level Jacksonville Center
12:17PM 33.0747 -81.4425 191° South 428 493 36,000  Level Jacksonville Center
12:18PM 32.9667 -81.4911 201° Southwest 423 487 36,000  Level Jacksonville Center
12:19PM 32.8544 -81.5375 199° South 423 487 36,000  Level Jacksonville Center
12:20PM 32.7444 -81.5883 201° Southwest 423 487 36,000  Level Jacksonville Center
12:21PM 32.6239 -81.6419 201° Southwest 424 488 36,000  Level Jacksonville Center
12:22PM 32.5261 -81.6853 200° South 417 480 36,000  Level Jacksonville Center
12:23PM 32.4056 -81.7336 199° South 424 488 36,000  Level Jacksonville Center
12:24PM 32.3014 -81.7569 191° South 429 494 36,000  Level Jacksonville Center
12:25PM 32.1722 -81.7881 192° South 434 499 36,000  Level Jacksonville Center
12:26PM 32.0533 -81.8142 191° South 429 494 36,000  Level Jacksonville Center
12:27PM 31.9514 -81.8347 190° South 429 494 36,000  Level Jacksonville Center
12:28PM 31.8200 -81.8656 191° South 429 494 36,000  Level Jacksonville Center
12:29PM 31.7158 -81.8911 192° South 429 494 36,000  Level Jacksonville Center
12:30PM 31.5867 -81.9169 190° South 429 494 36,000  Level Jacksonville Center
12:31PM 31.4697 -81.9450 192° South 429 494 36,000 -60 Level Jacksonville Center
12:32PM 31.3511 -81.9756 192° South 429 494 35,900  Descending Jacksonville Center
12:33PM 31.2322 -81.9983 189° South 429 494 36,000  Climbing Jacksonville Center
12:34PM 31.1156 -82.0264 192° South 429 494 36,000  Level Jacksonville Center
12:35PM 30.9967 -82.0539 191° South 429 494 36,000  Level Jacksonville Center
12:36PM 30.8778 -82.0769 189° South 429 494 36,000 -60 Level Jacksonville Center
12:37PM 30.7589 -82.1044 191° South 429 494 35,900 -60 Descending Jacksonville Center
12:38PM 30.6400 -82.1319 191° South 429 494 35,900  Level Jacksonville Center
12:39PM 30.5358 -82.1472 187° South 429 494 35,900  Level Jacksonville Center
12:40PM 30.4128 -82.1772 192° South 434 499 36,000 -60 Climbing Jacksonville Center
12:41PM 30.2917 -82.2022 190° South 439 505 35,800 -540 Descending Jacksonville Center
12:42PM 30.1708 -82.2294 191° South 444 511 35,000 -420 Descending Jacksonville Center
12:43PM 30.0561 -82.2542 191° South 444 511 35,000  Level Jacksonville Center
12:44PM 29.9311 -82.2861 192° South 451 519 35,000 -1,080 Level Jacksonville Center
12:45PM 29.8142 -82.3108 190° South 445 512 32,900 -2,700 Descending Jacksonville Center
12:46PM 29.6933 -82.3356 190° South 445 512 29,600 -3,000 Descending Jacksonville Center
12:47PM 29.5681 -82.3531 187° South 450 518 27,000 -1,320 Descending Jacksonville Center
12:48PM 29.4386 -82.3322 172° South 455 524 27,000 -240 Level Jacksonville Center
12:49PM 29.3153 -82.2994 167° South 460 529 26,600 -1,080 Descending Jacksonville Center
12:50PM 29.1900 -82.2742 170° South 465 535 24,900 -2,880 Descending Jacksonville Center
12:51PM 29.0606 -82.2703 178° South 465 535 20,900 -3,840 Descending Jacksonville Center
12:52PM 28.9372 -82.2661 178° South 460 529 17,300 -2,760 Descending Jacksonville Center
12:54PM 28.7000 -82.2833 184° South 328 377 12,300 -2,160 Descending Tampa TRACON
12:55PM 28.6500 -82.3167 210° Southwest 300 345 11,200 -660 Descending Tampa TRACON
12:56PM 28.5500 -82.3667 204° Southwest 291 335 11,000 -600 Descending Tampa TRACON
12:57PM 28.5000 -82.3833 196° South 288 331 10,000 -1,800 Descending Tampa TRACON
12:58PM 28.4167 -82.4167 199° South 282 325 7,800 -2,040 Descending Tampa TRACON
12:59PM 28.3500 -82.4500 204° Southwest 276 318 5,800 -2,100 Descending Tampa TRACON
01:00PM 28.2833 -82.4833 204° Southwest 268 308 3,700 -1,440 Descending Tampa TRACON
01:01PM 28.2167 -82.5167 204° Southwest 240 276 3,000 -720 Descending Tampa TRACON